createdAt,value
2016-11-12T00:00:01.898Z,84.71
2016-11-12T00:01:10.829Z,85
2016-11-12T00:02:19.764Z,84.71
2016-11-12T00:03:28.744Z,85
2016-11-12T00:04:38.006Z,84.9
2016-11-12T00:05:46.620Z,85.47
2016-11-12T00:06:55.564Z,85.38
2016-11-12T00:08:04.170Z,85.14
2016-11-12T00:09:13.152Z,85.57
2016-11-12T00:10:21.753Z,85.42
2016-11-12T00:11:31.007Z,84.9
2016-11-12T00:12:39.618Z,85.9
2016-11-12T00:13:48.872Z,85.05
2016-11-12T00:14:58.249Z,84.67
2016-11-12T00:16:06.866Z,85.33
2016-11-12T00:17:15.797Z,84.95
2016-11-12T00:18:25.059Z,84.86
2016-11-12T00:19:33.988Z,85.61
2016-11-12T00:20:43.598Z,85.61
2016-11-12T00:21:52.539Z,84.95
2016-11-12T00:23:01.472Z,85.33
2016-11-12T00:24:10.729Z,85.33
2016-11-12T00:25:19.983Z,85.42
2016-11-12T00:26:28.632Z,85.9
2016-11-12T00:27:37.241Z,85.05
2016-11-12T00:28:46.170Z,84.86
2016-11-12T00:29:54.778Z,85.52
2016-11-12T00:31:03.719Z,84.58
2016-11-12T00:32:13.605Z,83.39
2016-11-12T00:33:22.872Z,84.71
2016-11-12T00:34:31.481Z,85.52
2016-11-12T00:35:40.409Z,85.24
2016-11-12T00:36:49.337Z,84.86
2016-11-12T00:37:58.993Z,84.61
2016-11-12T00:39:08.255Z,84.29
2016-11-12T00:40:17.509Z,84.67
2016-11-12T00:41:26.766Z,84.48
2016-11-12T00:42:36.029Z,83.25
2016-11-12T00:43:45.632Z,83.58
2016-11-12T00:44:54.236Z,84.58
2016-11-12T00:46:03.166Z,85.14
2016-11-12T00:47:12.105Z,85.14
2016-11-12T00:48:21.364Z,85.71
2016-11-12T00:49:30.702Z,85.42
2016-11-12T00:50:39.636Z,85.33
2016-11-12T00:51:48.895Z,85.71
2016-11-12T00:52:58.482Z,85.52
2016-11-12T00:54:07.455Z,85.52
2016-11-12T00:55:17.387Z,85.71
2016-11-12T00:56:26.648Z,84.86
2016-11-12T00:57:35.261Z,84.86
2016-11-12T00:58:44.508Z,85.14
2016-11-12T00:59:53.453Z,86.56
2016-11-12T01:01:02.465Z,88.26
2016-11-12T01:02:11.078Z,87.51
2016-11-12T01:03:19.675Z,88.55
2016-11-12T01:04:28.602Z,88.45
2016-11-12T01:05:37.862Z,87.88
2016-11-12T01:06:46.838Z,87.41
2016-11-12T01:07:56.086Z,86.37
2016-11-12T01:09:05.018Z,86.37
2016-11-12T01:10:13.628Z,86.37
2016-11-12T01:11:22.584Z,85.33
2016-11-12T01:12:31.484Z,85.33
2016-11-12T01:13:40.739Z,85.05
2016-11-12T01:14:49.669Z,85.14
2016-11-12T01:15:59.238Z,85.24
2016-11-12T01:17:07.853Z,85.33
2016-11-12T01:18:16.855Z,85.33
2016-11-12T01:19:25.780Z,85.24
2016-11-12T01:20:34.714Z,84.58
2016-11-12T01:21:43.636Z,84.58
2016-11-12T01:22:52.568Z,84.77
2016-11-12T01:24:01.276Z,85.61
2016-11-12T01:25:09.877Z,85.24
2016-11-12T01:26:18.812Z,85.24
2016-11-12T01:27:27.765Z,85.05
2016-11-12T01:28:36.385Z,85.14
2016-11-12T01:29:45.684Z,84.2
2016-11-12T01:30:54.287Z,84.86
2016-11-12T01:32:03.219Z,84.48
2016-11-12T01:33:12.487Z,84.1
2016-11-12T01:34:21.414Z,84.39
2016-11-12T01:35:30.477Z,85.52
2016-11-12T01:36:39.088Z,85.52
2016-11-12T01:37:48.335Z,85.61
2016-11-12T01:38:56.948Z,84.77
2016-11-12T01:40:06.191Z,85.33
2016-11-12T01:41:14.894Z,86.09
2016-11-12T01:42:23.831Z,85.8
2016-11-12T01:43:32.760Z,85.33
2016-11-12T01:44:42.022Z,85.24
2016-11-12T01:45:50.991Z,85.52
2016-11-12T01:47:00.637Z,85.14
2016-11-12T01:48:09.579Z,85.61
2016-11-12T01:49:18.186Z,85.33
2016-11-12T01:50:27.119Z,85.52
2016-11-12T01:51:36.046Z,85.24
2016-11-12T01:52:45.354Z,85.33
2016-11-12T01:53:54.634Z,85.9
2016-11-12T01:55:03.564Z,84.86
2016-11-12T01:56:12.820Z,85.42
2016-11-12T01:57:22.075Z,85.05
2016-11-12T01:58:30.986Z,84.95
2016-11-12T01:59:40.249Z,85.33
2016-11-12T02:00:49.176Z,86.47
2016-11-12T02:01:57.774Z,86.47
2016-11-12T02:03:06.381Z,86.09
2016-11-12T02:04:15.081Z,86.09
2016-11-12T02:05:23.700Z,85.99
2016-11-12T02:06:32.309Z,85.42
2016-11-12T02:07:41.247Z,85.61
2016-11-12T02:08:50.527Z,85.52
2016-11-12T02:09:59.559Z,85.52
2016-11-12T02:11:09.460Z,85.14
2016-11-12T02:12:18.066Z,84.86
2016-11-12T02:13:26.995Z,84.48
2016-11-12T02:14:36.253Z,84.86
2016-11-12T02:15:45.587Z,84.95
2016-11-12T02:16:54.844Z,85.14
2016-11-12T02:18:03.806Z,85.8
2016-11-12T02:19:13.052Z,85.24
2016-11-12T02:20:21.994Z,85.52
2016-11-12T02:21:31.298Z,85.14
2016-11-12T02:22:40.911Z,85.33
2016-11-12T02:23:49.837Z,84.95
2016-11-12T02:24:58.447Z,84.86
2016-11-12T02:26:08.039Z,84.58
2016-11-12T02:27:17.016Z,83.91
2016-11-12T02:28:25.936Z,84.1
2016-11-12T02:29:35.200Z,83.91
2016-11-12T02:30:43.810Z,84.1
2016-11-12T02:31:52.782Z,84.77
2016-11-12T02:33:02.160Z,84.67
2016-11-12T02:34:11.083Z,84.39
2016-11-12T02:35:20.009Z,84.86
2016-11-12T02:36:28.624Z,84.48
2016-11-12T02:37:37.229Z,84.58
2016-11-12T02:38:46.461Z,84.86
2016-11-12T02:39:55.074Z,84.58
2016-11-12T02:41:03.681Z,85.14
2016-11-12T02:42:12.616Z,85.61
2016-11-12T02:43:21.557Z,85.05
2016-11-12T02:44:30.593Z,85.05
2016-11-12T02:45:39.530Z,85.14
2016-11-12T02:46:48.143Z,84.77
2016-11-12T02:47:57.068Z,85.52
2016-11-12T02:49:06.331Z,85.8
2016-11-12T02:50:15.613Z,87.41
2016-11-12T02:51:24.860Z,85.99
2016-11-12T02:52:33.783Z,85.42
2016-11-12T02:53:43.051Z,86.85
2016-11-12T02:54:51.982Z,86.56
2016-11-12T02:56:00.943Z,86.75
2016-11-12T02:57:09.557Z,87.23
2016-11-12T02:58:18.495Z,85.52
2016-11-12T02:59:27.108Z,85.52
2016-11-12T03:00:35.714Z,85.99
2016-11-12T03:01:44.623Z,85.52
2016-11-12T03:02:53.562Z,85.33
2016-11-12T03:04:02.815Z,85.33
2016-11-12T03:05:11.748Z,85.42
2016-11-12T03:06:20.669Z,85.14
2016-11-12T03:07:29.675Z,84.95
2016-11-12T03:08:38.606Z,84.86
2016-11-12T03:09:47.544Z,85.24
2016-11-12T03:10:56.162Z,85.52
2016-11-12T03:12:05.427Z,85.33
2016-11-12T03:13:15.473Z,85.61
2016-11-12T03:14:24.724Z,84.86
2016-11-12T03:15:33.343Z,83.91
2016-11-12T03:16:42.273Z,83.63
2016-11-12T03:17:50.888Z,83.63
2016-11-12T03:19:00.116Z,84.01
2016-11-12T03:20:09.041Z,84.48
2016-11-12T03:21:17.980Z,83.53
2016-11-12T03:22:26.584Z,84.29
2016-11-12T03:23:35.514Z,84.01
2016-11-12T03:24:44.745Z,83.82
2016-11-12T03:25:53.345Z,83.44
2016-11-12T03:27:01.953Z,83.91
2016-11-12T03:28:10.558Z,84.58
2016-11-12T03:29:19.825Z,85.14
2016-11-12T03:30:28.782Z,84.29
2016-11-12T03:31:38.040Z,83.82
2016-11-12T03:32:46.650Z,83.63
2016-11-12T03:33:55.583Z,83.53
2016-11-12T03:35:04.517Z,83.82
2016-11-12T03:36:13.558Z,83.25
2016-11-12T03:37:22.814Z,83.34
2016-11-12T03:38:31.438Z,83.53
2016-11-12T03:39:40.372Z,84.1
2016-11-12T03:40:49.633Z,83.82
2016-11-12T03:41:58.940Z,83.63
2016-11-12T03:43:07.542Z,84.67
2016-11-12T03:44:16.141Z,85.14
2016-11-12T03:45:24.762Z,84.48
2016-11-12T03:46:33.696Z,84.67
2016-11-12T03:47:42.978Z,84.1
2016-11-12T03:48:51.904Z,84.48
2016-11-12T03:50:00.829Z,83.91
2016-11-12T03:51:10.083Z,84.1
2016-11-12T03:52:18.696Z,84.1
2016-11-12T03:53:27.687Z,83.15
2016-11-12T03:54:36.633Z,83.53
2016-11-12T03:55:46.209Z,83.34
2016-11-12T03:56:55.134Z,83.63
2016-11-12T03:58:04.069Z,83.91
2016-11-12T03:59:14.095Z,83.25
2016-11-12T04:00:23.021Z,82.53
2016-11-12T04:01:31.628Z,84.2
2016-11-12T04:02:40.564Z,85.05
2016-11-12T04:03:49.170Z,84.29
2016-11-12T04:04:59.202Z,84.01
2016-11-12T04:06:07.811Z,84.48
2016-11-12T04:07:16.736Z,84.48
2016-11-12T04:08:25.987Z,84.86
2016-11-12T04:09:35.227Z,85.14
2016-11-12T04:10:44.511Z,84.86
2016-11-12T04:11:53.131Z,84.58
2016-11-12T04:13:02.427Z,84.95
2016-11-12T04:14:11.687Z,84.39
2016-11-12T04:15:20.291Z,84.67
2016-11-12T04:16:29.311Z,84.48
2016-11-12T04:17:38.242Z,85.14
2016-11-12T04:18:46.851Z,85.24
2016-11-12T04:19:56.114Z,85.14
2016-11-12T04:21:05.051Z,85.14
2016-11-12T04:22:14.669Z,86.18
2016-11-12T04:23:23.285Z,86.18
2016-11-12T04:24:31.930Z,85.9
2016-11-12T04:25:40.539Z,85.99
2016-11-12T04:26:49.150Z,85.9
2016-11-12T04:27:58.217Z,85.52
2016-11-12T04:29:07.474Z,84.86
2016-11-12T04:30:16.721Z,85.42
2016-11-12T04:31:25.322Z,85.61
2016-11-12T04:32:34.257Z,85.14
2016-11-12T04:33:43.283Z,84.95
2016-11-12T04:34:52.208Z,84.48
2016-11-12T04:36:01.456Z,85.05
2016-11-12T04:37:10.716Z,85.24
2016-11-12T04:38:19.985Z,85.52
2016-11-12T04:39:28.647Z,85.33
2016-11-12T04:40:37.248Z,85.42
2016-11-12T04:41:46.492Z,85.1
2016-11-12T04:42:55.416Z,85.61
2016-11-12T04:44:04.351Z,85.85
2016-11-12T04:45:13.312Z,85.47
2016-11-12T04:46:22.247Z,85.57
2016-11-12T04:47:30.861Z,85.38
2016-11-12T04:48:39.794Z,84.72
2016-11-12T04:49:48.400Z,84.86
2016-11-12T04:50:57.313Z,85
2016-11-12T04:52:06.565Z,85.47
2016-11-12T04:53:15.169Z,85.57
2016-11-12T04:54:24.425Z,84.91
2016-11-12T04:55:33.352Z,84.91
2016-11-12T04:56:42.402Z,84.67
2016-11-12T04:57:51.008Z,84.86
2016-11-12T04:58:59.616Z,83.87
2016-11-12T05:00:08.559Z,83.82
2016-11-12T05:01:17.488Z,83.34
2016-11-12T05:02:27.097Z,83.34
2016-11-12T05:03:36.353Z,83.34
2016-11-12T05:04:44.957Z,83.87
2016-11-12T05:05:53.563Z,84.16
2016-11-12T05:07:02.169Z,83.21
2016-11-12T05:08:11.491Z,83.53
2016-11-12T05:09:20.102Z,83.87
2016-11-12T05:10:29.036Z,84.16
2016-11-12T05:11:38.295Z,83.59
2016-11-12T05:12:46.894Z,83.87
2016-11-12T05:13:55.542Z,84.81
2016-11-12T05:15:04.474Z,84.44
2016-11-12T05:16:14.373Z,84.81
2016-11-12T05:17:22.990Z,84.81
2016-11-12T05:18:32.561Z,83.91
2016-11-12T05:19:41.525Z,84.91
2016-11-12T05:20:50.175Z,84.91
2016-11-12T05:21:59.470Z,84.16
2016-11-12T05:23:08.400Z,84.53
2016-11-12T05:24:17.973Z,85
2016-11-12T05:25:27.253Z,84.81
2016-11-12T05:26:36.187Z,84.81
2016-11-12T05:27:45.759Z,84.81
2016-11-12T05:28:55.015Z,85.14
2016-11-12T05:30:03.944Z,85
2016-11-12T05:31:12.962Z,84.95
2016-11-12T05:32:21.911Z,84.67
2016-11-12T05:33:31.206Z,85.71
2016-11-12T05:34:39.817Z,85.1
2016-11-12T05:35:48.784Z,86.52
2016-11-12T05:36:57.693Z,86.23
2016-11-12T05:38:06.301Z,85.52
2016-11-12T05:39:15.239Z,85.95
2016-11-12T05:40:23.847Z,86.33
2016-11-12T05:41:33.103Z,85.47
2016-11-12T05:42:41.808Z,84.58
2016-11-12T05:43:50.744Z,85.05
2016-11-12T05:45:00.000Z,85.47
2016-11-12T05:46:08.955Z,85.19
2016-11-12T05:47:17.558Z,86.52
2016-11-12T05:48:26.591Z,86.04
2016-11-12T05:49:35.198Z,86.71
2016-11-12T05:50:44.448Z,86.61
2016-11-12T05:51:53.387Z,87.46
2016-11-12T05:53:01.999Z,86.14
2016-11-12T05:54:11.364Z,86.18
2016-11-12T05:55:20.622Z,86.37
2016-11-12T05:56:29.882Z,86.99
2016-11-12T05:57:38.828Z,86.9
2016-11-12T05:58:47.756Z,86.94
2016-11-12T05:59:57.061Z,86.99
2016-11-12T06:01:06.311Z,86.9
2016-11-12T06:02:14.922Z,86.66
2016-11-12T06:03:23.861Z,86.09
2016-11-12T06:04:32.472Z,87.13
2016-11-12T06:05:42.028Z,87.13
2016-11-12T06:06:50.621Z,86.47
2016-11-12T06:07:59.546Z,85.9
2016-11-12T06:09:08.158Z,85.14
2016-11-12T06:10:17.086Z,85.99
2016-11-12T06:11:25.728Z,85.99
2016-11-12T06:12:34.974Z,85.52
2016-11-12T06:13:43.582Z,85.05
2016-11-12T06:14:52.184Z,84.77
2016-11-12T06:16:00.799Z,84.86
2016-11-12T06:17:10.134Z,84.01
2016-11-12T06:18:19.056Z,83.82
2016-11-12T06:19:28.957Z,84.86
2016-11-12T06:20:37.873Z,85.33
2016-11-12T06:21:46.810Z,85.33
2016-11-12T06:22:56.035Z,84.95
2016-11-12T06:24:04.680Z,84.67
2016-11-12T06:25:13.617Z,84.86
2016-11-12T06:26:22.228Z,85.05
2016-11-12T06:27:30.824Z,85.52
2016-11-12T06:28:40.493Z,86.37
2016-11-12T06:29:49.102Z,86.47
2016-11-12T06:30:58.032Z,85.05
2016-11-12T06:32:07.614Z,84.86
2016-11-12T06:33:16.551Z,84.58
2016-11-12T06:34:25.841Z,85.42
2016-11-12T06:35:35.100Z,85.14
2016-11-12T06:36:44.039Z,84.86
2016-11-12T06:37:52.971Z,85.52
2016-11-12T06:39:01.577Z,85.14
2016-11-12T06:40:10.573Z,84.95
2016-11-12T06:41:19.181Z,84.29
2016-11-12T06:42:27.788Z,83.15
2016-11-12T06:43:36.711Z,83.01
2016-11-12T06:44:45.646Z,83.1
2016-11-12T06:45:54.934Z,82.91
2016-11-12T06:47:03.870Z,83.44
2016-11-12T06:48:12.809Z,84.86
2016-11-12T06:49:21.424Z,85.61
2016-11-12T06:50:30.351Z,85.52
2016-11-12T06:51:39.339Z,84.86
2016-11-12T06:52:47.943Z,84.86
2016-11-12T06:53:56.546Z,84.86
2016-11-12T06:55:05.794Z,84.48
2016-11-12T06:56:14.400Z,84.1
2016-11-12T06:57:23.119Z,83.15
2016-11-12T06:58:32.054Z,82.72
2016-11-12T06:59:40.988Z,83.15
2016-11-12T07:00:49.921Z,82.91
2016-11-12T07:01:58.533Z,82.91
2016-11-12T07:03:08.131Z,82.21
2016-11-12T07:04:16.745Z,82.25
2016-11-12T07:05:26.335Z,83.06
2016-11-12T07:06:35.627Z,82.21
2016-11-12T07:07:44.875Z,82.91
2016-11-12T07:08:53.835Z,83.82
2016-11-12T07:10:03.418Z,83.53
2016-11-12T07:11:12.052Z,82.25
2016-11-12T07:12:20.648Z,82.53
2016-11-12T07:13:29.586Z,82.06
2016-11-12T07:14:38.855Z,82.97
2016-11-12T07:15:47.458Z,82.87
2016-11-12T07:16:56.392Z,83.25
2016-11-12T07:18:05.652Z,82.87
2016-11-12T07:19:14.578Z,82.91
2016-11-12T07:20:23.541Z,82.78
2016-11-12T07:21:33.133Z,82.97
2016-11-12T07:22:42.069Z,82.12
2016-11-12T07:23:50.683Z,83.44
2016-11-12T07:24:59.284Z,84.2
2016-11-12T07:26:08.270Z,83.34
2016-11-12T07:27:17.526Z,83.63
2016-11-12T07:28:26.131Z,83.34
2016-11-12T07:29:34.741Z,83.63
2016-11-12T07:30:43.685Z,83.91
2016-11-12T07:31:53.618Z,83.91
2016-11-12T07:33:02.591Z,83.82
2016-11-12T07:34:11.204Z,84.86
2016-11-12T07:35:19.812Z,83.91
2016-11-12T07:36:29.377Z,83.34
2016-11-12T07:37:39.312Z,83.44
2016-11-12T07:38:48.569Z,82.68
2016-11-12T07:39:57.511Z,82.21
2016-11-12T07:41:06.131Z,82.21
2016-11-12T07:42:15.053Z,81.59
2016-11-12T07:43:24.331Z,81.74
2016-11-12T07:44:33.265Z,82.5
2016-11-12T07:45:41.909Z,83.63
2016-11-12T07:46:51.167Z,83.06
2016-11-12T07:48:00.429Z,82.4
2016-11-12T07:49:09.480Z,81.64
2016-11-12T07:50:18.419Z,81.45
2016-11-12T07:51:27.339Z,81.36
2016-11-12T07:52:36.261Z,82.68
2016-11-12T07:53:45.205Z,82.21
2016-11-12T07:54:54.221Z,82.5
2016-11-12T07:56:03.472Z,83.15
2016-11-12T07:57:12.407Z,83.44
2016-11-12T07:58:21.170Z,82.68
2016-11-12T07:59:30.101Z,83.44
2016-11-12T08:00:39.341Z,84.86
2016-11-12T08:01:48.598Z,85.05
2016-11-12T08:02:57.868Z,84.67
2016-11-12T08:04:06.480Z,85.14
2016-11-12T08:05:15.093Z,85.57
2016-11-12T08:06:24.056Z,85.61
2016-11-12T08:07:33.308Z,86.14
2016-11-12T08:08:42.250Z,85.38
2016-11-12T08:09:50.849Z,83.34
2016-11-12T08:10:59.449Z,82.12
2016-11-12T08:12:08.793Z,81.45
2016-11-12T08:13:17.732Z,81.55
2016-11-12T08:14:26.674Z,80.79
2016-11-12T08:15:35.292Z,79.94
2016-11-12T08:16:44.870Z,79.98
2016-11-12T08:17:53.767Z,81.02
2016-11-12T08:19:02.707Z,80.83
2016-11-12T08:20:11.324Z,80.17
2016-11-12T08:21:19.942Z,79.6
2016-11-12T08:22:28.559Z,79.69
2016-11-12T08:23:37.226Z,78.75
2016-11-12T08:24:45.841Z,80.26
2016-11-12T08:25:54.780Z,80.36
2016-11-12T08:27:03.721Z,80.17
2016-11-12T08:28:12.984Z,79.79
2016-11-12T08:29:21.945Z,80.36
2016-11-12T08:30:30.902Z,80.93
2016-11-12T08:31:39.835Z,80.13
2016-11-12T08:32:49.407Z,81.59
2016-11-12T08:33:58.024Z,81.36
2016-11-12T08:35:07.058Z,81.36
2016-11-12T08:36:15.678Z,81.83
2016-11-12T08:37:24.287Z,80.98
2016-11-12T08:38:32.906Z,82.4
2016-11-12T08:39:41.561Z,81.64
2016-11-12T08:40:50.824Z,80.26
2016-11-12T08:41:59.757Z,79.69
2016-11-12T08:43:08.365Z,79.5
2016-11-12T08:44:17.335Z,79.13
2016-11-12T08:45:26.269Z,79.03
2016-11-12T08:46:35.246Z,78.94
2016-11-12T08:47:44.485Z,78.75
2016-11-12T08:48:53.426Z,78.94
2016-11-12T08:50:02.376Z,78.94
2016-11-12T08:51:11.304Z,80.17
2016-11-12T08:52:19.972Z,81.26
2016-11-12T08:53:29.237Z,80.32
2016-11-12T08:54:37.843Z,81.74
2016-11-12T08:55:46.772Z,80.51
2016-11-12T08:56:56.037Z,80.55
2016-11-12T08:58:05.315Z,80.04
2016-11-12T08:59:14.244Z,80.69
2016-11-12T09:00:23.184Z,80.55
2016-11-12T09:01:32.435Z,81.83
2016-11-12T09:02:41.697Z,82.59
2016-11-12T09:03:50.814Z,83.25
2016-11-12T09:05:00.393Z,82.02
2016-11-12T09:06:09.341Z,80.74
2016-11-12T09:07:17.943Z,81.07
2016-11-12T09:08:26.867Z,80.13
2016-11-12T09:09:35.902Z,80.51
2016-11-12T09:10:44.508Z,81.45
2016-11-12T09:11:54.438Z,81.26
2016-11-12T09:13:03.040Z,80.93
2016-11-12T09:14:11.659Z,80.13
2016-11-12T09:15:20.683Z,79.41
2016-11-12T09:16:30.261Z,79.79
2016-11-12T09:17:38.873Z,79.03
2016-11-12T09:18:47.796Z,79.69
2016-11-12T09:19:57.091Z,80.36
2016-11-12T09:21:05.788Z,79.88
2016-11-12T09:22:15.056Z,80.79
2016-11-12T09:23:23.660Z,81.36
2016-11-12T09:24:32.274Z,80.26
2016-11-12T09:25:41.207Z,80.32
2016-11-12T09:26:50.196Z,80.93
2016-11-12T09:27:59.134Z,80.07
2016-11-12T09:29:07.740Z,80.36
2016-11-12T09:30:17.043Z,80.98
2016-11-12T09:31:25.655Z,80.64
2016-11-12T09:32:34.906Z,81.74
2016-11-12T09:33:44.198Z,81.49
2016-11-12T09:34:53.767Z,79.98
2016-11-12T09:36:03.339Z,80.74
2016-11-12T09:37:12.267Z,80.17
2016-11-12T09:38:21.284Z,81.21
2016-11-12T09:39:30.205Z,82.31
2016-11-12T09:40:39.151Z,83.25
2016-11-12T09:41:48.459Z,81.45
2016-11-12T09:42:57.399Z,79.69
2016-11-12T09:44:06.681Z,79.69
2016-11-12T09:45:15.293Z,79.41
2016-11-12T09:46:23.901Z,79.88
2016-11-12T09:47:32.518Z,79.13
2016-11-12T09:48:41.452Z,78.56
2016-11-12T09:49:51.347Z,79.98
2016-11-12T09:51:00.296Z,80.51
2016-11-12T09:52:09.550Z,79.88
2016-11-12T09:53:18.164Z,80.04
2016-11-12T09:54:27.437Z,80.51
2016-11-12T09:55:36.116Z,81.36
2016-11-12T09:56:45.069Z,80.26
2016-11-12T09:57:54.005Z,79.03
2016-11-12T09:59:02.948Z,80.36
2016-11-12T10:00:11.872Z,79.22
2016-11-12T10:01:21.156Z,77.99
2016-11-12T10:02:29.761Z,77.99
2016-11-12T10:03:38.758Z,80.07
2016-11-12T10:04:47.404Z,81.17
2016-11-12T10:05:56.351Z,80.69
2016-11-12T10:07:05.333Z,80.17
2016-11-12T10:08:14.608Z,80.98
2016-11-12T10:09:23.548Z,80.98
2016-11-12T10:10:32.503Z,80.69
2016-11-12T10:11:41.111Z,79.94
2016-11-12T10:12:50.079Z,79.85
2016-11-12T10:13:59.332Z,80.32
2016-11-12T10:15:08.266Z,80.32
2016-11-12T10:16:17.210Z,79.88
2016-11-12T10:17:26.156Z,78.37
2016-11-12T10:18:34.821Z,80.17
2016-11-12T10:19:44.103Z,80.79
2016-11-12T10:20:53.363Z,79.98
2016-11-12T10:22:02.305Z,79.03
2016-11-12T10:23:11.552Z,77.8
2016-11-12T10:24:20.892Z,77.33
2016-11-12T10:25:30.473Z,77.61
2016-11-12T10:26:39.408Z,76.48
2016-11-12T10:27:48.065Z,77.7
2016-11-12T10:28:56.996Z,79.94
2016-11-12T10:30:06.314Z,81.17
2016-11-12T10:31:14.915Z,82.97
2016-11-12T10:32:23.874Z,81.64
2016-11-12T10:33:32.493Z,79.22
2016-11-12T10:34:41.434Z,77.33
2016-11-12T10:35:51.042Z,77.7
2016-11-12T10:36:59.686Z,77.33
2016-11-12T10:38:08.626Z,77.33
2016-11-12T10:39:17.555Z,76.86
2016-11-12T10:40:26.814Z,76.95
2016-11-12T10:41:36.208Z,77.23
2016-11-12T10:42:44.822Z,79.22
2016-11-12T10:43:54.087Z,79.56
2016-11-12T10:45:03.358Z,80.32
2016-11-12T10:46:11.975Z,81.88
2016-11-12T10:47:21.281Z,81.74
2016-11-12T10:48:29.897Z,79.94
2016-11-12T10:49:39.139Z,79.94
2016-11-12T10:50:48.059Z,79.94
2016-11-12T10:51:57.653Z,78.65
2016-11-12T10:53:06.370Z,79.69
2016-11-12T10:54:15.649Z,79.22
2016-11-12T10:55:24.911Z,77.99
2016-11-12T10:56:33.839Z,77.89
2016-11-12T10:57:42.779Z,78.46
2016-11-12T10:58:52.026Z,79.75
2016-11-12T11:00:00.625Z,77.99
2016-11-12T11:01:09.560Z,77.33
2016-11-12T11:02:18.178Z,78.56
2016-11-12T11:03:26.798Z,77.7
2016-11-12T11:04:36.161Z,78.75
2016-11-12T11:05:45.426Z,79.6
2016-11-12T11:06:54.364Z,80.04
2016-11-12T11:08:04.267Z,80.04
2016-11-12T11:09:12.870Z,79.13
2016-11-12T11:10:21.591Z,79.6
2016-11-12T11:11:30.879Z,80.41
2016-11-12T11:12:40.128Z,79.69
2016-11-12T11:13:49.393Z,77.61
2016-11-12T11:14:58.328Z,77.14
2016-11-12T11:16:07.054Z,77.04
2016-11-12T11:17:15.986Z,78.52
2016-11-12T11:18:24.912Z,78.65
2016-11-12T11:19:33.846Z,79.69
2016-11-12T11:20:42.771Z,79.41
2016-11-12T11:21:51.753Z,79.22
2016-11-12T11:23:00.689Z,81.55
2016-11-12T11:24:09.654Z,81.74
2016-11-12T11:25:18.261Z,81.17
2016-11-12T11:26:27.186Z,79.98
2016-11-12T11:27:36.136Z,80.07
2016-11-12T11:28:44.776Z,79.41
2016-11-12T11:29:53.708Z,78.46
2016-11-12T11:31:02.981Z,79.28
2016-11-12T11:32:12.257Z,80.07
2016-11-12T11:33:21.813Z,79.18
2016-11-12T11:34:31.428Z,79.32
2016-11-12T11:35:41.006Z,78.27
2016-11-12T11:36:50.279Z,78.56
2016-11-12T11:37:59.532Z,79.94
2016-11-12T11:39:08.500Z,79.85
2016-11-12T11:40:17.763Z,80.07
2016-11-12T11:41:26.365Z,80.83
2016-11-12T11:42:34.973Z,80.41
2016-11-12T11:43:43.945Z,79.79
2016-11-12T11:44:53.707Z,78.65
2016-11-12T11:46:02.812Z,76.95
2016-11-12T11:47:11.922Z,76.04
2016-11-12T11:48:21.211Z,75.38
2016-11-12T11:49:30.871Z,75.57
2016-11-12T11:50:39.848Z,78.03
2016-11-12T11:51:49.611Z,78.37
2016-11-12T11:52:58.562Z,79.41
2016-11-12T11:54:08.044Z,78.27
2016-11-12T11:55:17.693Z,78.56
2016-11-12T11:56:27.396Z,79.69
2016-11-12T11:57:36.977Z,79.41
2016-11-12T11:58:45.946Z,80.17
2016-11-12T11:59:54.555Z,81.07
2016-11-12T12:01:03.948Z,80.17
2016-11-12T12:02:12.909Z,79.69
2016-11-12T12:03:21.529Z,76.95
2016-11-12T12:04:30.466Z,75.85
2016-11-12T12:05:39.716Z,76.76
2016-11-12T12:06:49.291Z,77.99
2016-11-12T12:07:58.207Z,77.51
2016-11-12T12:09:07.139Z,77.7
2016-11-12T12:10:16.416Z,79.6
2016-11-12T12:11:25.029Z,80.32
2016-11-12T12:12:34.675Z,79.88
2016-11-12T12:13:43.714Z,79.69
2016-11-12T12:14:52.331Z,77.99
2016-11-12T12:16:01.593Z,76.57
2016-11-12T12:17:10.855Z,75.38
2016-11-12T12:18:19.463Z,75.95
2016-11-12T12:19:28.788Z,75.66
2016-11-12T12:20:37.395Z,77.33
2016-11-12T12:21:46.697Z,78.65
2016-11-12T12:22:55.312Z,77.8
2016-11-12T12:24:04.575Z,78.75
2016-11-12T12:25:14.240Z,78.56
2016-11-12T12:26:22.854Z,77.33
2016-11-12T12:27:31.793Z,76.57
2016-11-12T12:28:41.090Z,75.85
2016-11-12T12:29:50.565Z,74.43
2016-11-12T12:30:59.221Z,75.47
2016-11-12T12:32:08.164Z,76.61
2016-11-12T12:33:17.101Z,77.04
2016-11-12T12:34:26.366Z,77.65
2016-11-12T12:35:35.300Z,75.43
2016-11-12T12:36:44.593Z,75.66
2016-11-12T12:37:53.873Z,75.19
2016-11-12T12:39:02.804Z,76.23
2016-11-12T12:40:11.727Z,76.8
2016-11-12T12:41:20.665Z,76.67
2016-11-12T12:42:29.659Z,74.43
2016-11-12T12:43:38.295Z,74.28
2016-11-12T12:44:47.555Z,73.39
2016-11-12T12:45:56.822Z,71.62
2016-11-12T12:47:05.751Z,72.77
2016-11-12T12:48:14.671Z,74.05
2016-11-12T12:49:23.600Z,73.71
2016-11-12T12:50:32.543Z,72.96
2016-11-12T12:51:41.484Z,72.77
2016-11-12T12:52:50.422Z,73.33
2016-11-12T12:53:59.379Z,72.48
2016-11-12T12:55:09.289Z,72
2016-11-12T12:56:18.217Z,73.43
2016-11-12T12:57:27.471Z,76.89
2016-11-12T12:58:36.087Z,77.33
2016-11-12T12:59:44.749Z,76.51
2016-11-12T13:00:53.368Z,75.7
2016-11-12T13:02:02.295Z,76.14
2016-11-12T13:03:11.228Z,75.28
2016-11-12T13:04:19.835Z,74.66
2016-11-12T13:05:29.129Z,76.61
2016-11-12T13:06:38.060Z,79.22
2016-11-12T13:07:46.664Z,78.37
2016-11-12T13:08:55.275Z,77.89
2016-11-12T13:10:04.207Z,76.61
2016-11-12T13:11:13.460Z,77.94
2016-11-12T13:12:22.720Z,77.04
2016-11-12T13:13:31.326Z,75.57
2016-11-12T13:14:40.254Z,75.6
2016-11-12T13:15:48.852Z,77.94
2016-11-12T13:16:57.884Z,78.41
2016-11-12T13:18:07.458Z,76.99
2016-11-12T13:19:16.722Z,77.84
2016-11-12T13:20:25.331Z,77.84
2016-11-12T13:21:34.585Z,77.27
2016-11-12T13:22:43.876Z,75.57
2016-11-12T13:23:52.485Z,77.27
2016-11-12T13:25:01.471Z,78.5
2016-11-12T13:26:10.095Z,77.94
2016-11-12T13:27:19.344Z,77.37
2016-11-12T13:28:28.631Z,78.79
2016-11-12T13:29:37.565Z,79.79
2016-11-12T13:30:46.502Z,79.32
2016-11-12T13:31:55.105Z,78.31
2016-11-12T13:33:04.043Z,78.41
2016-11-12T13:34:13.362Z,77.08
2016-11-12T13:35:22.306Z,76.42
2016-11-12T13:36:30.922Z,77.75
2016-11-12T13:37:40.506Z,78.5
2016-11-12T13:38:49.442Z,77.94
2016-11-12T13:39:58.155Z,77.75
2016-11-12T13:41:06.767Z,77.37
2016-11-12T13:42:15.709Z,76.32
2016-11-12T13:43:24.969Z,77.27
2016-11-12T13:44:34.540Z,77.37
2016-11-12T13:45:44.152Z,78.41
2016-11-12T13:46:53.089Z,78.79
2016-11-12T13:48:02.019Z,78.31
2016-11-12T13:49:10.952Z,77.75
2016-11-12T13:50:19.904Z,79.45
2016-11-12T13:51:28.948Z,79.74
2016-11-12T13:52:37.879Z,80.26
2016-11-12T13:53:46.482Z,80.07
2016-11-12T13:54:55.096Z,79.07
2016-11-12T13:56:04.041Z,77.37
2016-11-12T13:57:13.100Z,78.5
2016-11-12T13:58:22.031Z,77.75
2016-11-12T13:59:31.278Z,76.89
2016-11-12T14:00:40.543Z,77.75
2016-11-12T14:01:49.477Z,78.41
2016-11-12T14:02:58.145Z,77.37
2016-11-12T14:04:06.740Z,77.12
2016-11-12T14:05:15.997Z,79.07
2016-11-12T14:06:24.937Z,77.75
2016-11-12T14:07:33.861Z,77.56
2016-11-12T14:08:42.852Z,78.13
2016-11-12T14:09:52.469Z,77.46
2016-11-12T14:11:01.715Z,76.14
2016-11-12T14:12:10.649Z,76.99
2016-11-12T14:13:19.252Z,76.7
2016-11-12T14:14:28.844Z,76.23
2016-11-12T14:15:37.456Z,76.7
2016-11-12T14:16:46.401Z,75.47
2016-11-12T14:17:55.653Z,75.85
2016-11-12T14:19:04.584Z,76.99
2016-11-12T14:20:13.597Z,77.08
2016-11-12T14:21:22.854Z,77.75
2016-11-12T14:22:31.475Z,77.46
2016-11-12T14:23:40.080Z,77.94
2016-11-12T14:24:49.336Z,78.31
2016-11-12T14:25:58.334Z,76.99
2016-11-12T14:27:06.954Z,76.89
2016-11-12T14:28:15.900Z,79.17
2016-11-12T14:29:24.515Z,78.31
2016-11-12T14:30:33.778Z,76.99
2016-11-12T14:31:43.491Z,76.7
2016-11-12T14:32:53.391Z,77.46
2016-11-12T14:34:02.660Z,76.99
2016-11-12T14:35:11.588Z,76.51
2016-11-12T14:36:20.836Z,76.04
2016-11-12T14:37:29.584Z,75.98
2016-11-12T14:38:38.524Z,75.51
2016-11-12T14:39:47.127Z,75.89
2016-11-12T14:40:56.059Z,76.61
2016-11-12T14:42:05.309Z,75.38
2016-11-12T14:43:14.305Z,75.23
2016-11-12T14:44:23.241Z,76.51
2016-11-12T14:45:32.237Z,77.46
2016-11-12T14:46:41.177Z,77.08
2016-11-12T14:47:50.108Z,77.27
2016-11-12T14:48:59.362Z,78.13
2016-11-12T14:50:08.306Z,78.41